sensor_id;sensor_type;location;lat;lon;timestamp;P1;durP1;ratioP1;P2;durP2;ratioP2
63664;SDS011;49820;33.966;73.390;2022-09-09T00:04:33;45.27;;;28.13;;
63664;SDS011;49820;33.966;73.390;2022-09-09T00:07:13;47.78;;;29.83;;
63664;SDS011;49820;33.966;73.390;2022-09-09T00:18:39;44.10;;;28.20;;
63664;SDS011;49820;33.966;73.390;2022-09-09T00:21:18;42.43;;;29.30;;
63664;SDS011;49820;33.966;73.390;2022-09-09T00:23:53;42.95;;;28.52;;
63664;SDS011;49820;33.966;73.390;2022-09-09T00:26:28;41.70;;;29.23;;
63664;SDS011;49820;33.966;73.390;2022-09-09T00:32:05;45.08;;;28.88;;
63664;SDS011;49820;33.966;73.390;2022-09-09T00:34:47;40.42;;;29.52;;
63664;SDS011;49820;33.966;73.390;2022-09-09T00:37:19;41.38;;;28.75;;
63664;SDS011;49820;33.966;73.390;2022-09-09T00:39:51;42.55;;;28.85;;
63664;SDS011;49820;33.966;73.390;2022-09-09T00:48:01;44.85;;;31.70;;
63664;SDS011;49820;33.966;73.390;2022-09-09T00:53:27;39.38;;;29.33;;
63664;SDS011;49820;33.966;73.390;2022-09-09T00:58:43;31.98;;;24.80;;
63664;SDS011;49820;33.966;73.390;2022-09-09T01:01:24;31.58;;;23.88;;
63664;SDS011;49820;33.966;73.390;2022-09-09T01:03:54;30.85;;;22.83;;
63664;SDS011;49820;33.966;73.390;2022-09-09T01:06:30;29.30;;;22.90;;
63664;SDS011;49820;33.966;73.390;2022-09-09T01:14:44;31.60;;;21.05;;
63664;SDS011;49820;33.966;73.390;2022-09-09T01:17:19;27.17;;;20.50;;
63664;SDS011;49820;33.966;73.390;2022-09-09T01:26:44;23.95;;;19.20;;
63664;SDS011;49820;33.966;73.390;2022-09-09T01:29:22;24.63;;;19.80;;
63664;SDS011;49820;33.966;73.390;2022-09-09T01:32:39;24.50;;;20.53;;
63664;SDS011;49820;33.966;73.390;2022-09-09T01:34:59;28.00;;;20.77;;
63664;SDS011;49820;33.966;73.390;2022-09-09T01:37:28;26.15;;;20.30;;
63664;SDS011;49820;33.966;73.390;2022-09-09T01:39:57;26.60;;;20.60;;
63664;SDS011;49820;33.966;73.390;2022-09-09T01:42:26;23.10;;;18.25;;
63664;SDS011;49820;33.966;73.390;2022-09-09T01:44:56;25.13;;;19.25;;
63664;SDS011;49820;33.966;73.390;2022-09-09T01:47:25;30.17;;;18.10;;
63664;SDS011;49820;33.966;73.390;2022-09-09T01:50:07;24.35;;;18.55;;
63664;SDS011;49820;33.966;73.390;2022-09-09T01:52:41;25.90;;;18.25;;
63664;SDS011;49820;33.966;73.390;2022-09-09T01:55:16;24.35;;;18.20;;
63664;SDS011;49820;33.966;73.390;2022-09-09T01:57:56;24.27;;;17.95;;
63664;SDS011;49820;33.966;73.390;2022-09-09T02:00:44;22.95;;;16.13;;
63664;SDS011;49820;33.966;73.390;2022-09-09T02:03:28;20.23;;;17.08;;
63664;SDS011;49820;33.966;73.390;2022-09-09T02:09:17;19.45;;;14.98;;
63664;SDS011;49820;33.966;73.390;2022-09-09T02:11:55;19.83;;;14.97;;
63664;SDS011;49820;33.966;73.390;2022-09-09T02:14:47;19.15;;;15.10;;
63664;SDS011;49820;33.966;73.390;2022-09-09T02:17:46;21.58;;;15.25;;
63664;SDS011;49820;33.966;73.390;2022-09-09T02:20:18;20.33;;;15.15;;
63664;SDS011;49820;33.966;73.390;2022-09-09T02:22:53;19.77;;;13.95;;
63664;SDS011;49820;33.966;73.390;2022-09-09T02:25:26;21.63;;;13.32;;
63664;SDS011;49820;33.966;73.390;2022-09-09T02:28:10;22.30;;;13.32;;
63664;SDS011;49820;33.966;73.390;2022-09-09T02:30:42;18.15;;;13.52;;
63664;SDS011;49820;33.966;73.390;2022-09-09T02:33:16;17.45;;;13.18;;
63664;SDS011;49820;33.966;73.390;2022-09-09T02:35:49;18.40;;;13.52;;
63664;SDS011;49820;33.966;73.390;2022-09-09T02:38:23;20.37;;;12.57;;
63664;SDS011;49820;33.966;73.390;2022-09-09T02:41:02;18.25;;;12.43;;
63664;SDS011;49820;33.966;73.390;2022-09-09T02:43:33;20.30;;;12.50;;
63664;SDS011;49820;33.966;73.390;2022-09-09T02:52:08;17.77;;;12.27;;
63664;SDS011;49820;33.966;73.390;2022-09-09T02:54:43;19.70;;;12.00;;
63664;SDS011;49820;33.966;73.390;2022-09-09T02:59:50;17.37;;;12.37;;
63664;SDS011;49820;33.966;73.390;2022-09-09T03:02:20;20.63;;;13.27;;
63664;SDS011;49820;33.966;73.390;2022-09-09T03:04:54;18.17;;;12.98;;
63664;SDS011;49820;33.966;73.390;2022-09-09T03:07:23;16.70;;;12.43;;
63664;SDS011;49820;33.966;73.390;2022-09-09T03:09:52;16.08;;;12.13;;
63664;SDS011;49820;33.966;73.390;2022-09-09T03:12:25;16.70;;;11.73;;
63664;SDS011;49820;33.966;73.390;2022-09-09T03:14:54;17.45;;;12.20;;
63664;SDS011;49820;33.966;73.390;2022-09-09T03:17:24;20.83;;;11.57;;
63664;SDS011;49820;33.966;73.390;2022-09-09T03:19:54;18.27;;;11.75;;
63664;SDS011;49820;33.966;73.390;2022-09-09T03:22:24;20.00;;;12.63;;
63664;SDS011;49820;33.966;73.390;2022-09-09T03:24:55;16.40;;;12.75;;
63664;SDS011;49820;33.966;73.390;2022-09-09T03:27:24;19.17;;;13.57;;
63664;SDS011;49820;33.966;73.390;2022-09-09T03:30:04;19.08;;;13.00;;
63664;SDS011;49820;33.966;73.390;2022-09-09T03:32:33;21.60;;;13.25;;
63664;SDS011;49820;33.966;73.390;2022-09-09T03:35:03;18.75;;;13.55;;
63664;SDS011;49820;33.966;73.390;2022-09-09T03:37:32;22.75;;;13.73;;
63664;SDS011;49820;33.966;73.390;2022-09-09T03:40:01;18.85;;;13.68;;
63664;SDS011;49820;33.966;73.390;2022-09-09T03:42:35;18.70;;;14.65;;
63664;SDS011;49820;33.966;73.390;2022-09-09T03:45:09;20.42;;;14.75;;
63664;SDS011;49820;33.966;73.390;2022-09-09T03:47:40;21.10;;;15.50;;
63664;SDS011;49820;33.966;73.390;2022-09-09T03:50:10;21.98;;;15.23;;
63664;SDS011;49820;33.966;73.390;2022-09-09T03:52:44;22.17;;;15.75;;
63664;SDS011;49820;33.966;73.390;2022-09-09T03:55:20;23.92;;;16.48;;
63664;SDS011;49820;33.966;73.390;2022-09-09T03:57:50;26.98;;;16.13;;
63664;SDS011;49820;33.966;73.390;2022-09-09T04:00:18;22.35;;;16.08;;
63664;SDS011;49820;33.966;73.390;2022-09-09T04:02:51;28.13;;;17.13;;
63664;SDS011;49820;33.966;73.390;2022-09-09T04:05:22;24.13;;;16.60;;
63664;SDS011;49820;33.966;73.390;2022-09-09T04:07:51;23.57;;;16.07;;
63664;SDS011;49820;33.966;73.390;2022-09-09T04:10:21;24.73;;;15.75;;
63664;SDS011;49820;33.966;73.390;2022-09-09T04:12:53;23.98;;;15.27;;
63664;SDS011;49820;33.966;73.390;2022-09-09T04:15:22;21.47;;;14.83;;
63664;SDS011;49820;33.966;73.390;2022-09-09T04:17:50;19.85;;;14.27;;
63664;SDS011;49820;33.966;73.390;2022-09-09T04:20:19;21.85;;;14.50;;
63664;SDS011;49820;33.966;73.390;2022-09-09T04:22:50;21.75;;;14.40;;
63664;SDS011;49820;33.966;73.390;2022-09-09T04:25:20;20.42;;;14.50;;
63664;SDS011;49820;33.966;73.390;2022-09-09T04:27:58;20.58;;;13.68;;
63664;SDS011;49820;33.966;73.390;2022-09-09T04:30:27;22.38;;;13.77;;
63664;SDS011;49820;33.966;73.390;2022-09-09T04:32:56;17.40;;;13.52;;
63664;SDS011;49820;33.966;73.390;2022-09-09T04:35:25;18.92;;;13.30;;
63664;SDS011;49820;33.966;73.390;2022-09-09T04:37:55;19.10;;;14.70;;
63664;SDS011;49820;33.966;73.390;2022-09-09T04:40:25;20.13;;;13.50;;
63664;SDS011;49820;33.966;73.390;2022-09-09T04:42:54;22.90;;;14.10;;
63664;SDS011;49820;33.966;73.390;2022-09-09T04:45:23;27.63;;;14.75;;
63664;SDS011;49820;33.966;73.390;2022-09-09T04:47:54;22.58;;;14.65;;
63664;SDS011;49820;33.966;73.390;2022-09-09T04:50:24;21.52;;;14.43;;
63664;SDS011;49820;33.966;73.390;2022-09-09T04:52:59;23.45;;;14.30;;
63664;SDS011;49820;33.966;73.390;2022-09-09T04:55:29;20.35;;;14.13;;
63664;SDS011;49820;33.966;73.390;2022-09-09T04:58:06;20.60;;;15.10;;
63664;SDS011;49820;33.966;73.390;2022-09-09T05:00:39;20.50;;;14.25;;
63664;SDS011;49820;33.966;73.390;2022-09-09T05:03:08;17.02;;;13.07;;
63664;SDS011;49820;33.966;73.390;2022-09-09T05:05:37;21.58;;;13.65;;
63664;SDS011;49820;33.966;73.390;2022-09-09T05:08:07;20.25;;;13.18;;
63664;SDS011;49820;33.966;73.390;2022-09-09T05:10:38;20.65;;;13.27;;
63664;SDS011;49820;33.966;73.390;2022-09-09T05:13:11;20.40;;;14.32;;
63664;SDS011;49820;33.966;73.390;2022-09-09T05:15:41;22.20;;;14.02;;
63664;SDS011;49820;33.966;73.390;2022-09-09T05:18:15;19.17;;;14.43;;
63664;SDS011;49820;33.966;73.390;2022-09-09T05:21:02;22.92;;;15.43;;
63664;SDS011;49820;33.966;73.390;2022-09-09T05:23:32;23.73;;;16.45;;
63664;SDS011;49820;33.966;73.390;2022-09-09T05:26:02;22.50;;;16.58;;
63664;SDS011;49820;33.966;73.390;2022-09-09T05:28:33;19.48;;;15.57;;
63664;SDS011;49820;33.966;73.390;2022-09-09T05:31:05;21.15;;;15.00;;
63664;SDS011;49820;33.966;73.390;2022-09-09T05:33:43;17.75;;;13.93;;
63664;SDS011;49820;33.966;73.390;2022-09-09T05:36:15;20.55;;;15.07;;
63664;SDS011;49820;33.966;73.390;2022-09-09T05:38:49;22.65;;;15.80;;
63664;SDS011;49820;33.966;73.390;2022-09-09T05:41:24;22.50;;;13.98;;
63664;SDS011;49820;33.966;73.390;2022-09-09T05:43:55;19.10;;;13.68;;
63664;SDS011;49820;33.966;73.390;2022-09-09T05:46:27;21.08;;;13.75;;
63664;SDS011;49820;33.966;73.390;2022-09-09T05:48:56;18.83;;;14.85;;
63664;SDS011;49820;33.966;73.390;2022-09-09T05:51:29;22.88;;;14.48;;
63664;SDS011;49820;33.966;73.390;2022-09-09T05:54:04;19.05;;;13.68;;
63664;SDS011;49820;33.966;73.390;2022-09-09T05:56:40;18.25;;;13.40;;
63664;SDS011;49820;33.966;73.390;2022-09-09T05:59:09;18.50;;;12.80;;
63664;SDS011;49820;33.966;73.390;2022-09-09T06:01:39;15.63;;;12.60;;
63664;SDS011;49820;33.966;73.390;2022-09-09T06:04:17;16.75;;;12.00;;
63664;SDS011;49820;33.966;73.390;2022-09-09T06:06:48;17.52;;;11.95;;
63664;SDS011;49820;33.966;73.390;2022-09-09T06:09:20;18.05;;;11.95;;
63664;SDS011;49820;33.966;73.390;2022-09-09T06:11:49;17.08;;;12.40;;
63664;SDS011;49820;33.966;73.390;2022-09-09T06:14:20;16.43;;;12.47;;
63664;SDS011;49820;33.966;73.390;2022-09-09T06:16:51;19.35;;;12.85;;
63664;SDS011;49820;33.966;73.390;2022-09-09T06:19:22;15.50;;;13.03;;
63664;SDS011;49820;33.966;73.390;2022-09-09T06:21:58;17.58;;;12.80;;
63664;SDS011;49820;33.966;73.390;2022-09-09T06:24:30;21.35;;;12.18;;
63664;SDS011;49820;33.966;73.390;2022-09-09T06:27:02;16.85;;;12.35;;
63664;SDS011;49820;33.966;73.390;2022-09-09T06:29:34;17.38;;;12.80;;
63664;SDS011;49820;33.966;73.390;2022-09-09T06:32:04;15.02;;;12.68;;
63664;SDS011;49820;33.966;73.390;2022-09-09T06:34:33;19.73;;;13.23;;
63664;SDS011;49820;33.966;73.390;2022-09-09T06:37:04;18.57;;;11.83;;
63664;SDS011;49820;33.966;73.390;2022-09-09T06:39:40;17.15;;;12.07;;
63664;SDS011;49820;33.966;73.390;2022-09-09T06:42:09;19.95;;;11.63;;
63664;SDS011;49820;33.966;73.390;2022-09-09T06:45:02;17.75;;;11.88;;
63664;SDS011;49820;33.966;73.390;2022-09-09T06:47:43;16.23;;;11.10;;
63664;SDS011;49820;33.966;73.390;2022-09-09T06:50:14;17.08;;;11.20;;
63664;SDS011;49820;33.966;73.390;2022-09-09T06:52:45;25.37;;;17.57;;
63664;SDS011;49820;33.966;73.390;2022-09-09T06:55:15;19.20;;;13.17;;
63664;SDS011;49820;33.966;73.390;2022-09-09T06:57:45;17.80;;;11.82;;
63664;SDS011;49820;33.966;73.390;2022-09-09T07:00:21;17.58;;;12.45;;
63664;SDS011;49820;33.966;73.390;2022-09-09T07:02:51;18.25;;;13.05;;
63664;SDS011;49820;33.966;73.390;2022-09-09T07:05:21;21.63;;;16.85;;
63664;SDS011;49820;33.966;73.390;2022-09-09T07:07:53;18.25;;;12.63;;
63664;SDS011;49820;33.966;73.390;2022-09-09T07:10:23;20.37;;;13.73;;
63664;SDS011;49820;33.966;73.390;2022-09-09T07:12:52;17.77;;;13.40;;
63664;SDS011;49820;33.966;73.390;2022-09-09T07:15:24;19.03;;;12.83;;
63664;SDS011;49820;33.966;73.390;2022-09-09T07:17:54;18.42;;;13.05;;
63664;SDS011;49820;33.966;73.390;2022-09-09T07:20:24;15.63;;;12.20;;
63664;SDS011;49820;33.966;73.390;2022-09-09T07:24:26;17.23;;;12.57;;
63664;SDS011;49820;33.966;73.390;2022-09-09T07:27:21;17.00;;;12.27;;
63664;SDS011;49820;33.966;73.390;2022-09-09T07:29:53;19.15;;;12.65;;
63664;SDS011;49820;33.966;73.390;2022-09-09T07:32:23;17.15;;;13.02;;
63664;SDS011;49820;33.966;73.390;2022-09-09T07:34:53;17.27;;;12.27;;
63664;SDS011;49820;33.966;73.390;2022-09-09T07:37:23;20.83;;;13.38;;
63664;SDS011;49820;33.966;73.390;2022-09-09T07:39:59;17.10;;;12.65;;
63664;SDS011;49820;33.966;73.390;2022-09-09T07:42:37;18.00;;;12.15;;
63664;SDS011;49820;33.966;73.390;2022-09-09T07:45:06;20.00;;;12.50;;
63664;SDS011;49820;33.966;73.390;2022-09-09T07:47:35;16.55;;;12.70;;
63664;SDS011;49820;33.966;73.390;2022-09-09T07:50:05;22.75;;;13.50;;
63664;SDS011;49820;33.966;73.390;2022-09-09T07:52:35;17.83;;;12.90;;
63664;SDS011;49820;33.966;73.390;2022-09-09T07:55:12;17.90;;;12.68;;
63664;SDS011;49820;33.966;73.390;2022-09-09T07:57:42;19.27;;;12.85;;
63664;SDS011;49820;33.966;73.390;2022-09-09T08:00:12;20.23;;;13.30;;
63664;SDS011;49820;33.966;73.390;2022-09-09T08:02:49;20.15;;;13.15;;
63664;SDS011;49820;33.966;73.390;2022-09-09T08:05:18;18.45;;;12.55;;
63664;SDS011;49820;33.966;73.390;2022-09-09T08:08:01;19.60;;;13.57;;
63664;SDS011;49820;33.966;73.390;2022-09-09T08:10:32;18.15;;;12.95;;
63664;SDS011;49820;33.966;73.390;2022-09-09T08:13:01;17.23;;;12.50;;
63664;SDS011;49820;33.966;73.390;2022-09-09T08:15:47;18.58;;;13.70;;
63664;SDS011;49820;33.966;73.390;2022-09-09T08:18:19;21.88;;;13.70;;
63664;SDS011;49820;33.966;73.390;2022-09-09T08:20:57;25.45;;;13.90;;
63664;SDS011;49820;33.966;73.390;2022-09-09T08:23:26;20.93;;;14.50;;
63664;SDS011;49820;33.966;73.390;2022-09-09T08:26:02;20.75;;;13.57;;
63664;SDS011;49820;33.966;73.390;2022-09-09T08:28:33;19.80;;;13.52;;
63664;SDS011;49820;33.966;73.390;2022-09-09T08:33:41;22.08;;;13.82;;
63664;SDS011;49820;33.966;73.390;2022-09-09T08:36:20;22.52;;;14.68;;
63664;SDS011;49820;33.966;73.390;2022-09-09T08:38:53;22.98;;;14.40;;
63664;SDS011;49820;33.966;73.390;2022-09-09T08:47:21;20.02;;;14.00;;
63664;SDS011;49820;33.966;73.390;2022-09-09T08:50:22;23.95;;;14.52;;
63664;SDS011;49820;33.966;73.390;2022-09-09T08:55:56;23.38;;;15.40;;
63664;SDS011;49820;33.966;73.390;2022-09-09T08:58:54;23.67;;;15.75;;
63664;SDS011;49820;33.966;73.390;2022-09-09T09:04:29;23.83;;;16.35;;
63664;SDS011;49820;33.966;73.390;2022-09-09T09:10:46;24.03;;;16.80;;
63664;SDS011;49820;33.966;73.390;2022-09-09T09:13:27;20.17;;;16.73;;
63664;SDS011;49820;33.966;73.390;2022-09-09T09:16:31;22.58;;;16.95;;
63664;SDS011;49820;33.966;73.390;2022-09-09T09:19:11;19.55;;;15.57;;
63664;SDS011;49820;33.966;73.390;2022-09-09T09:21:46;21.13;;;16.20;;
63664;SDS011;49820;33.966;73.390;2022-09-09T09:27:13;21.77;;;15.60;;
63664;SDS011;49820;33.966;73.390;2022-09-09T09:29:51;21.75;;;15.25;;
63664;SDS011;49820;33.966;73.390;2022-09-09T09:32:57;19.95;;;14.52;;
63664;SDS011;49820;33.966;73.390;2022-09-09T09:35:35;21.27;;;15.27;;
63664;SDS011;49820;33.966;73.390;2022-09-09T09:41:15;19.25;;;14.65;;
63664;SDS011;49820;33.966;73.390;2022-09-09T09:43:52;22.77;;;16.02;;
63664;SDS011;49820;33.966;73.390;2022-09-09T09:46:24;22.25;;;14.73;;
63664;SDS011;49820;33.966;73.390;2022-09-09T09:49:05;21.10;;;14.00;;
63664;SDS011;49820;33.966;73.390;2022-09-09T09:51:42;20.50;;;13.90;;
63664;SDS011;49820;33.966;73.390;2022-09-09T09:56:47;21.73;;;13.80;;
63664;SDS011;49820;33.966;73.390;2022-09-09T09:59:22;24.20;;;14.27;;
63664;SDS011;49820;33.966;73.390;2022-09-09T10:02:24;18.38;;;13.65;;
63664;SDS011;49820;33.966;73.390;2022-09-09T10:05:08;21.60;;;13.50;;
63664;SDS011;49820;33.966;73.390;2022-09-09T10:08:05;19.52;;;13.73;;
63664;SDS011;49820;33.966;73.390;2022-09-09T10:10:47;20.80;;;13.73;;
63664;SDS011;49820;33.966;73.390;2022-09-09T10:28:18;22.38;;;13.95;;
63664;SDS011;49820;33.966;73.390;2022-09-09T10:31:12;20.48;;;13.75;;
63664;SDS011;49820;33.966;73.390;2022-09-09T10:39:56;22.67;;;15.00;;
63664;SDS011;49820;33.966;73.390;2022-09-09T10:42:43;20.00;;;14.73;;
63664;SDS011;49820;33.966;73.390;2022-09-09T10:45:23;23.40;;;15.27;;
63664;SDS011;49820;33.966;73.390;2022-09-09T10:50:45;21.17;;;15.30;;
63664;SDS011;49820;33.966;73.390;2022-09-09T10:53:49;21.98;;;14.82;;
63664;SDS011;49820;33.966;73.390;2022-09-09T10:56:24;25.90;;;15.93;;
63664;SDS011;49820;33.966;73.390;2022-09-09T10:59:12;20.45;;;15.65;;
63664;SDS011;49820;33.966;73.390;2022-09-09T11:01:54;25.63;;;17.53;;
63664;SDS011;49820;33.966;73.390;2022-09-09T11:07:10;23.85;;;16.55;;
63664;SDS011;49820;33.966;73.390;2022-09-09T11:09:45;23.20;;;15.98;;
63664;SDS011;49820;33.966;73.390;2022-09-09T11:12:21;25.37;;;17.27;;
63664;SDS011;49820;33.966;73.390;2022-09-09T11:14:59;23.13;;;15.70;;
63664;SDS011;49820;33.966;73.390;2022-09-09T11:17:54;23.67;;;17.05;;
63664;SDS011;49820;33.966;73.390;2022-09-09T11:20:27;23.13;;;17.00;;
63664;SDS011;49820;33.966;73.390;2022-09-09T11:23:09;26.38;;;18.17;;
63664;SDS011;49820;33.966;73.390;2022-09-09T11:25:47;28.48;;;19.13;;
63664;SDS011;49820;33.966;73.390;2022-09-09T11:33:48;28.55;;;19.27;;
63664;SDS011;49820;33.966;73.390;2022-09-09T11:42:20;30.08;;;20.98;;
63664;SDS011;49820;33.966;73.390;2022-09-09T11:44:52;27.92;;;21.25;;
63664;SDS011;49820;33.966;73.390;2022-09-09T11:47:27;33.70;;;23.55;;
63664;SDS011;49820;33.966;73.390;2022-09-09T11:52:48;34.33;;;25.25;;
63664;SDS011;49820;33.966;73.390;2022-09-09T11:55:25;36.30;;;26.00;;
63664;SDS011;49820;33.966;73.390;2022-09-09T11:58:02;37.05;;;26.55;;
63664;SDS011;49820;33.966;73.390;2022-09-09T12:03:05;34.50;;;25.88;;
63664;SDS011;49820;33.966;73.390;2022-09-09T12:05:54;33.55;;;25.83;;
63664;SDS011;49820;33.966;73.390;2022-09-09T12:08:29;37.30;;;26.73;;
63664;SDS011;49820;33.966;73.390;2022-09-09T12:10:59;34.15;;;26.13;;
63664;SDS011;49820;33.966;73.390;2022-09-09T12:13:28;36.17;;;26.20;;
63664;SDS011;49820;33.966;73.390;2022-09-09T12:16:00;33.63;;;25.57;;
63664;SDS011;49820;33.966;73.390;2022-09-09T12:18:34;32.78;;;26.85;;
63664;SDS011;49820;33.966;73.390;2022-09-09T12:21:21;37.15;;;25.45;;
63664;SDS011;49820;33.966;73.390;2022-09-09T12:24:07;35.20;;;26.33;;
63664;SDS011;49820;33.966;73.390;2022-09-09T12:34:41;34.08;;;25.00;;
63664;SDS011;49820;33.966;73.390;2022-09-09T12:37:24;34.47;;;26.77;;
63664;SDS011;49820;33.966;73.390;2022-09-09T12:40:02;40.00;;;26.80;;
63664;SDS011;49820;33.966;73.390;2022-09-09T12:42:39;38.93;;;28.07;;
63664;SDS011;49820;33.966;73.390;2022-09-09T12:45:16;37.28;;;28.77;;
63664;SDS011;49820;33.966;73.390;2022-09-09T12:47:51;35.92;;;27.33;;
63664;SDS011;49820;33.966;73.390;2022-09-09T12:50:32;33.72;;;27.40;;
63664;SDS011;49820;33.966;73.390;2022-09-09T12:53:08;35.53;;;26.67;;
63664;SDS011;49820;33.966;73.390;2022-09-09T12:55:51;34.38;;;25.95;;
63664;SDS011;49820;33.966;73.390;2022-09-09T12:58:23;37.47;;;26.77;;
63664;SDS011;49820;33.966;73.390;2022-09-09T13:00:53;34.90;;;27.63;;
63664;SDS011;49820;33.966;73.390;2022-09-09T13:03:26;35.75;;;27.30;;
63664;SDS011;49820;33.966;73.390;2022-09-09T13:06:10;36.08;;;27.88;;
63664;SDS011;49820;33.966;73.390;2022-09-09T13:08:53;36.90;;;28.08;;
63664;SDS011;49820;33.966;73.390;2022-09-09T13:11:24;37.50;;;28.08;;
63664;SDS011;49820;33.966;73.390;2022-09-09T13:14:12;38.55;;;27.42;;
63664;SDS011;49820;33.966;73.390;2022-09-09T13:17:00;41.97;;;28.83;;
63664;SDS011;49820;33.966;73.390;2022-09-09T13:19:35;43.05;;;28.15;;
63664;SDS011;49820;33.966;73.390;2022-09-09T13:22:40;35.03;;;27.45;;
63664;SDS011;49820;33.966;73.390;2022-09-09T13:27:50;39.60;;;29.10;;
63664;SDS011;49820;33.966;73.390;2022-09-09T13:30:29;35.63;;;28.08;;
63664;SDS011;49820;33.966;73.390;2022-09-09T13:33:34;37.60;;;29.42;;
63664;SDS011;49820;33.966;73.390;2022-09-09T13:36:07;40.70;;;28.83;;
63664;SDS011;49820;33.966;73.390;2022-09-09T13:38:40;42.53;;;29.33;;
63664;SDS011;49820;33.966;73.390;2022-09-09T13:41:24;38.30;;;28.73;;
63664;SDS011;49820;33.966;73.390;2022-09-09T13:43:59;39.60;;;28.77;;
63664;SDS011;49820;33.966;73.390;2022-09-09T13:46:33;42.30;;;29.35;;
63664;SDS011;49820;33.966;73.390;2022-09-09T13:49:27;43.75;;;30.58;;
63664;SDS011;49820;33.966;73.390;2022-09-09T13:52:10;41.83;;;30.80;;
63664;SDS011;49820;33.966;73.390;2022-09-09T13:54:41;43.63;;;30.58;;
63664;SDS011;49820;33.966;73.390;2022-09-09T13:57:17;43.47;;;31.40;;
63664;SDS011;49820;33.966;73.390;2022-09-09T13:59:48;41.42;;;31.63;;
63664;SDS011;49820;33.966;73.390;2022-09-09T14:02:31;44.25;;;32.78;;
63664;SDS011;49820;33.966;73.390;2022-09-09T14:05:02;42.22;;;32.38;;
63664;SDS011;49820;33.966;73.390;2022-09-09T14:07:31;46.00;;;33.63;;
63664;SDS011;49820;33.966;73.390;2022-09-09T14:10:01;48.33;;;36.30;;
63664;SDS011;49820;33.966;73.390;2022-09-09T14:12:30;40.25;;;32.33;;
63664;SDS011;49820;33.966;73.390;2022-09-09T14:14:59;42.45;;;34.03;;
63664;SDS011;49820;33.966;73.390;2022-09-09T14:17:28;45.33;;;34.80;;
63664;SDS011;49820;33.966;73.390;2022-09-09T14:19:59;40.90;;;33.25;;
63664;SDS011;49820;33.966;73.390;2022-09-09T14:22:28;41.97;;;34.13;;
63664;SDS011;49820;33.966;73.390;2022-09-09T14:24:57;41.78;;;32.55;;
63664;SDS011;49820;33.966;73.390;2022-09-09T14:27:25;44.88;;;34.33;;
63664;SDS011;49820;33.966;73.390;2022-09-09T14:29:55;47.47;;;34.33;;
63664;SDS011;49820;33.966;73.390;2022-09-09T14:32:25;44.70;;;34.47;;
63664;SDS011;49820;33.966;73.390;2022-09-09T14:34:54;41.30;;;33.17;;
63664;SDS011;49820;33.966;73.390;2022-09-09T14:37:24;52.13;;;41.70;;
63664;SDS011;49820;33.966;73.390;2022-09-09T14:39:53;44.33;;;34.03;;
63664;SDS011;49820;33.966;73.390;2022-09-09T14:42:23;45.70;;;33.90;;
63664;SDS011;49820;33.966;73.390;2022-09-09T14:44:53;44.83;;;34.65;;
63664;SDS011;49820;33.966;73.390;2022-09-09T14:47:22;43.00;;;35.08;;
63664;SDS011;49820;33.966;73.390;2022-09-09T14:49:51;45.67;;;35.28;;
63664;SDS011;49820;33.966;73.390;2022-09-09T14:52:21;44.17;;;35.15;;
63664;SDS011;49820;33.966;73.390;2022-09-09T14:54:50;46.40;;;35.42;;
63664;SDS011;49820;33.966;73.390;2022-09-09T14:57:19;46.83;;;35.35;;
63664;SDS011;49820;33.966;73.390;2022-09-09T14:59:49;43.65;;;34.20;;
63664;SDS011;49820;33.966;73.390;2022-09-09T15:02:18;47.05;;;33.92;;
63664;SDS011;49820;33.966;73.390;2022-09-09T15:04:47;43.50;;;32.55;;
63664;SDS011;49820;33.966;73.390;2022-09-09T15:07:18;41.47;;;31.15;;
63664;SDS011;49820;33.966;73.390;2022-09-09T15:09:47;41.17;;;31.97;;
63664;SDS011;49820;33.966;73.390;2022-09-09T15:12:16;42.97;;;32.88;;
63664;SDS011;49820;33.966;73.390;2022-09-09T15:14:48;38.85;;;30.48;;
63664;SDS011;49820;33.966;73.390;2022-09-09T15:17:18;38.42;;;30.63;;
63664;SDS011;49820;33.966;73.390;2022-09-09T15:19:48;37.88;;;30.13;;
63664;SDS011;49820;33.966;73.390;2022-09-09T15:22:17;38.47;;;29.13;;
63664;SDS011;49820;33.966;73.390;2022-09-09T15:24:47;38.85;;;29.27;;
63664;SDS011;49820;33.966;73.390;2022-09-09T15:27:16;40.30;;;30.40;;
63664;SDS011;49820;33.966;73.390;2022-09-09T15:29:46;38.65;;;30.38;;
63664;SDS011;49820;33.966;73.390;2022-09-09T15:32:15;37.90;;;30.17;;
63664;SDS011;49820;33.966;73.390;2022-09-09T15:34:44;42.53;;;29.42;;
63664;SDS011;49820;33.966;73.390;2022-09-09T15:37:13;38.75;;;30.63;;
63664;SDS011;49820;33.966;73.390;2022-09-09T15:39:43;37.72;;;29.40;;
63664;SDS011;49820;33.966;73.390;2022-09-09T15:42:12;37.90;;;30.60;;
63664;SDS011;49820;33.966;73.390;2022-09-09T15:44:41;36.38;;;30.83;;
63664;SDS011;49820;33.966;73.390;2022-09-09T15:47:11;37.37;;;30.03;;
63664;SDS011;49820;33.966;73.390;2022-09-09T15:49:41;40.33;;;31.30;;
63664;SDS011;49820;33.966;73.390;2022-09-09T15:52:10;40.85;;;31.38;;
63664;SDS011;49820;33.966;73.390;2022-09-09T15:54:39;39.97;;;31.60;;
63664;SDS011;49820;33.966;73.390;2022-09-09T15:57:11;43.22;;;31.52;;
63664;SDS011;49820;33.966;73.390;2022-09-09T15:59:41;39.97;;;32.07;;
63664;SDS011;49820;33.966;73.390;2022-09-09T16:02:11;42.85;;;31.25;;
63664;SDS011;49820;33.966;73.390;2022-09-09T16:04:40;41.97;;;31.17;;
63664;SDS011;49820;33.966;73.390;2022-09-09T16:07:09;43.17;;;32.70;;
63664;SDS011;49820;33.966;73.390;2022-09-09T16:09:38;38.92;;;31.48;;
63664;SDS011;49820;33.966;73.390;2022-09-09T16:12:07;41.77;;;32.57;;
63664;SDS011;49820;33.966;73.390;2022-09-09T16:14:41;43.28;;;34.47;;
63664;SDS011;49820;33.966;73.390;2022-09-09T16:17:11;45.55;;;34.85;;
63664;SDS011;49820;33.966;73.390;2022-09-09T16:19:41;43.13;;;34.08;;
63664;SDS011;49820;33.966;73.390;2022-09-09T16:22:11;46.92;;;33.08;;
63664;SDS011;49820;33.966;73.390;2022-09-09T16:24:43;43.85;;;32.80;;
63664;SDS011;49820;33.966;73.390;2022-09-09T16:27:13;45.60;;;32.72;;
63664;SDS011;49820;33.966;73.390;2022-09-09T16:29:42;41.55;;;32.70;;
63664;SDS011;49820;33.966;73.390;2022-09-09T16:32:12;43.50;;;32.47;;
63664;SDS011;49820;33.966;73.390;2022-09-09T16:34:41;38.87;;;32.53;;
63664;SDS011;49820;33.966;73.390;2022-09-09T16:37:11;43.70;;;34.45;;
63664;SDS011;49820;33.966;73.390;2022-09-09T16:39:42;43.83;;;34.15;;
63664;SDS011;49820;33.966;73.390;2022-09-09T16:42:11;43.95;;;32.80;;
63664;SDS011;49820;33.966;73.390;2022-09-09T16:44:41;45.90;;;32.53;;
63664;SDS011;49820;33.966;73.390;2022-09-09T16:47:10;41.78;;;31.30;;
63664;SDS011;49820;33.966;73.390;2022-09-09T16:49:43;41.35;;;30.75;;
63664;SDS011;49820;33.966;73.390;2022-09-09T16:52:19;36.60;;;29.95;;
63664;SDS011;49820;33.966;73.390;2022-09-09T16:54:48;36.88;;;29.05;;
63664;SDS011;49820;33.966;73.390;2022-09-09T16:57:20;37.20;;;28.98;;
63664;SDS011;49820;33.966;73.390;2022-09-09T16:59:50;32.50;;;25.30;;
63664;SDS011;49820;33.966;73.390;2022-09-09T17:02:22;29.73;;;24.08;;